< < Back
Terminal Aerodrome Forecast


Current Version              Previous Versions:   1  2  3  4  5  6  7  8  9  

Terminal Aerodrome Forecast

663
FTAK31 PAJN 222300
TAFAHN
TAF
PAHN 222335Z 2300/2324 12006KT P6SM BKN150
     FM230600 VRB03KT P6SM VCSH SCT050 BKN100
     FM231000 31005KT P6SM VCSH SCT040 OVC080
     FM231400 31005KT P6SM SCT050 BKN100
     FM232100 12005KT P6SM BKN100
      AMD LTD TO CLD VIS AND WIND=

Latest METAR

946
SAUS70 KWBC 230854
MTRAHN
METAR KAHN 230851Z AUTO 00000KT 10SM CLR 23/21 A2998 RMK AO2 SLP141
T02280206 56010


USA.gov is the U.S. government's official web portal to all federal, state and local government web resources and services.